• Join FlightAware (Why Join?)
  • Login
  • US Flag 
07:48PM EDT


 

Airport Tracker/Info


-or-


 

Live Flight TrackerFlight Track Log ✈ UAL4663 ✈ 11-Jul-2013 ✈ KOKC - KIAH

Flight Track Log - Related Links

Times and Time Zones

All times are in EDT time to prevent confusion due to time zone crossing. See the UAL4663 flight status page for this flight to view local times or setup timezone preferences in your user account.

Time Position Orientation Groundspeed Altitude Reporting Facility
EDT Latitude Longitude Course Direction KTS MPH feet Rate Location/Type
04:06PM 35.4144 -97.6097 154° Southeast 175 201 2,000  Level Fort Worth Center
04:07PM 35.4372 -97.6353 318° Northwest 196 226 3,000 1,620 Climbing Fort Worth Center
04:08PM 35.4350 -97.6939 267° West 241 277 4,500 1,380 Climbing Fort Worth Center
04:09PM 35.3850 -97.6861 173° South 257 296 5,500 1,500 Climbing Fort Worth Center
04:10PM 35.0295 -97.4393 168° South  Level Estimated
04:10PM 35.3142 -97.6681 168° South 270 311 7,300  Level Fort Worth Center
04:11PM 34.9385 -97.3991 162° South  Level Estimated
04:11PM 35.2308 -97.6397 164° South 275 316 9,400  Level Fort Worth Center
04:12PM 34.8476 -97.3591 154° Southeast  Level Estimated
04:12PM 35.1517 -97.6142 165° South 285 328 10,700  Level Fort Worth Center
04:13PM 35.0619 -97.5861 166° South 308 354 11,400 840 Climbing Fort Worth Center
04:14PM 34.9661 -97.5528 164° South 336 387 12,500 1,200 Climbing Fort Worth Center
04:15PM 34.8700 -97.5250 167° South 348 400 13,900 1,500 Climbing Fort Worth Center
04:16PM 34.7722 -97.5044 170° South 361 415 15,500 1,560 Climbing Fort Worth Center
04:18PM 34.5822 -97.4614 169° South 351 404 18,700 1,560 Climbing Fort Worth Center
04:19PM 34.4864 -97.4386 169° South 351 404 20,300 1,320 Climbing Fort Worth Center
04:20PM 34.3944 -97.4186 170° South 351 404 21,400 960 Climbing Fort Worth Center
04:21PM 34.2944 -97.3858 165° South 357 411 22,300 840 Climbing Fort Worth Center
04:22PM 34.1964 -97.3483 162° South 362 417 23,100 780 Climbing Fort Worth Center
04:23PM 34.1064 -97.2806 148° Southeast 369 425 23,900 780 Climbing Fort Worth Center
04:24PM 34.0333 -97.2106 142° Southeast 369 425 24,700 780 Climbing Fort Worth Center
04:25PM 33.9456 -97.1356 145° Southeast 379 436 25,500 780 Climbing Fort Worth Center
04:26PM 33.8578 -97.0583 144° Southeast 391 450 26,300 840 Climbing Fort Worth Center
04:27PM 33.7697 -96.9811 144° Southeast 391 450 27,200 840 Climbing Fort Worth Center
04:28PM 33.6756 -96.9192 151° Southeast 391 450 28,000 780 Climbing Fort Worth Center
04:29PM 33.5692 -96.8775 162° South 391 450 28,800 480 Climbing Fort Worth Center
04:30PM 33.4583 -96.8756 179° South 391 450 29,000 60 Climbing Fort Worth Center
04:31PM 33.3436 -96.8814 182° South 406 467 29,000  Level Fort Worth Center
04:32PM 33.2206 -96.8747 177° South 419 482 29,000  Level Fort Worth Center
04:33PM 33.0992 -96.8356 165° South 440 506 29,000  Level Fort Worth Center
04:34PM 32.9656 -96.7969 166° South 451 519 29,000  Level Fort Worth Center
04:35PM 32.8422 -96.7631 167° South 451 519 29,000  Level Fort Worth Center
04:36PM 32.7167 -96.7269 166° South 456 525 29,000  Level Fort Worth Center
04:37PM 32.5914 -96.7008 170° South 456 525 29,000  Level Fort Worth Center
04:38PM 32.4639 -96.6747 170° South 461 531 29,000  Level Fort Worth Center
04:39PM 32.3364 -96.6511 171° South 466 536 29,000  Level Fort Worth Center
04:40PM 32.2089 -96.6253 170° South 466 536 29,000  Level Fort Worth Center
04:41PM 32.0833 -96.5969 169° South 466 536 29,000  Level Fort Worth Center
04:42PM 31.9600 -96.5711 170° South 466 536 29,000  Level Fort Worth Center
04:43PM 31.8383 -96.5450 170° South 459 528 29,000  Level Houston Center
04:44PM 31.7119 -96.5192 170° South 457 526 29,000  Level Houston Center
04:45PM 31.5842 -96.4928 170° South 459 528 29,000  Level Houston Center
04:46PM 31.4569 -96.4664 170° South 458 527 29,000 -420 Level Houston Center
04:47PM 31.3300 -96.4739 183° South 454 522 28,200 -1,020 Descending Houston Center
04:48PM 31.1878 -96.5231 196° South 450 518 27,000 -1,080 Descending Houston Center
04:49PM 31.0664 -96.5642 196° South 447 514 26,000 -1,020 Descending Houston Center
04:50PM 30.9478 -96.6047 196° South 439 505 24,900 -1,020 Descending Houston Center
04:51PM 30.8300 -96.5992 178° South 432 497 23,900 -1,020 Descending Houston Center
04:52PM 30.7603 -96.4975 129° Southeast 411 473 22,800 -1,440 Descending Houston Center
04:53PM 30.7042 -96.3856 120° Southeast 399 459 21,000 -1,860 Descending Houston Center
04:54PM 30.6539 -96.2736 118° Southeast 389 448 19,000 -2,040 Descending Houston Center
04:55PM 30.6025 -96.1681 119° Southeast 374 430 16,800 -2,340 Descending Houston Center
04:56PM 30.5436 -96.0453 119° Southeast 372 428 14,200 -2,400 Descending Houston Center
04:57PM 30.5122 -95.9869 122° Southeast 397 457 13,000 -1,560 Descending Houston Center
04:58PM 30.4661 -95.8906 119° Southeast 367 422 11,900 -660 Descending Houston Center
04:58PM 30.4344 -95.8447 129° Southeast 370 426 12,000 -360 Climbing Houston Center
04:59PM 30.3886 -95.7956 137° Southeast 365 420 11,500 -1,020 Descending Houston Center
04:59PM 30.3608 -95.7656 137° Southeast 359 413 11,000 -1,020 Descending Houston Center
05:00PM 30.2872 -95.6881 138° Southeast 359 413 10,000 -600 Descending Houston Center
05:01PM 30.2050 -95.6025 138° Southeast 335 386 9,800 -1,020 Descending Houston Center
05:03PM 30.1461 -95.5411 138° Southeast 292 336 7,900 -1,380 Descending Houston Center
05:04PM 30.1072 -95.4683 122° Southeast 282 325 7,000 -720 Descending Houston Center
05:05PM 30.1061 -95.3844 91° East 262 302 6,500 -540 Descending Houston Center
05:06PM 30.1058 -95.3025 90° East 255 293 6,000 -420 Descending Houston Center
05:07PM 30.1061 -95.2278 90° East 238 274 5,700 -960 Descending Houston Center
05:08PM 30.0728 -95.1547 118° Southeast 245 282 4,000 -960 Descending Houston Center
05:09PM 30.0203 -95.1589 184° South 196 226 3,800 -900 Descending Houston Center
05:10PM 29.9956 -95.2114 241° Southwest 195 224 2,200 -1,560 Descending Houston Center